sensor_id;sensor_type;location;lat;lon;timestamp;pressure;altitude;pressure_sealevel;temperature;humidity
65997;BME280;52765;52.258;21.052;2023-02-04T00:01:34;100021.44;;;-0.16;100.00
65997;BME280;52765;52.258;21.052;2023-02-04T00:04:00;100029.28;;;-0.14;100.00
65997;BME280;52765;52.258;21.052;2023-02-04T00:06:26;100039.41;;;-0.21;100.00
65997;BME280;52765;52.258;21.052;2023-02-04T00:08:52;100037.69;;;-0.22;100.00
65997;BME280;52765;52.258;21.052;2023-02-04T00:11:17;100052.06;;;-0.26;100.00
65997;BME280;52765;52.258;21.052;2023-02-04T00:13:45;100059.44;;;-0.31;100.00
65997;BME280;52765;52.258;21.052;2023-02-04T00:16:10;100059.91;;;-0.39;100.00
65997;BME280;52765;52.258;21.052;2023-02-04T00:18:36;100081.47;;;-0.31;100.00
65997;BME280;52765;52.258;21.052;2023-02-04T00:21:01;100094.34;;;-0.25;100.00
65997;BME280;52765;52.258;21.052;2023-02-04T00:23:27;100098.66;;;-0.24;100.00
65997;BME280;52765;52.258;21.052;2023-02-04T00:25:52;100109.19;;;-0.36;100.00
65997;BME280;52765;52.258;21.052;2023-02-04T00:28:18;100111.03;;;-0.39;100.00
65997;BME280;52765;52.258;21.052;2023-02-04T00:30:43;100111.34;;;-0.43;100.00
65997;BME280;52765;52.258;21.052;2023-02-04T00:33:09;100118.13;;;-0.39;100.00
65997;BME280;52765;52.258;21.052;2023-02-04T00:35:34;100113.78;;;-0.40;100.00
65997;BME280;52765;52.258;21.052;2023-02-04T00:38:02;100124.38;;;-0.40;100.00
65997;BME280;52765;52.258;21.052;2023-02-04T00:40:27;100134.56;;;-0.48;100.00
65997;BME280;52765;52.258;21.052;2023-02-04T00:42:53;100134.47;;;-0.47;100.00
65997;BME280;52765;52.258;21.052;2023-02-04T00:45:18;100149.19;;;-0.57;100.00
65997;BME280;52765;52.258;21.052;2023-02-04T00:47:44;100155.53;;;-0.60;100.00
65997;BME280;52765;52.258;21.052;2023-02-04T00:50:09;100161.94;;;-0.64;100.00
65997;BME280;52765;52.258;21.052;2023-02-04T00:52:35;100170.75;;;-0.63;100.00
65997;BME280;52765;52.258;21.052;2023-02-04T00:55:00;100172.50;;;-0.64;100.00
65997;BME280;52765;52.258;21.052;2023-02-04T00:57:26;100185.56;;;-0.61;100.00
65997;BME280;52765;52.258;21.052;2023-02-04T00:59:52;100189.16;;;-0.62;100.00
65997;BME280;52765;52.258;21.052;2023-02-04T01:02:17;100199.94;;;-0.65;100.00
65997;BME280;52765;52.258;21.052;2023-02-04T01:04:42;100217.50;;;-0.64;100.00
65997;BME280;52765;52.258;21.052;2023-02-04T01:07:08;100221.69;;;-0.60;100.00
65997;BME280;52765;52.258;21.052;2023-02-04T01:09:33;100220.72;;;-0.59;100.00
65997;BME280;52765;52.258;21.052;2023-02-04T01:11:59;100223.47;;;-0.60;100.00
65997;BME280;52765;52.258;21.052;2023-02-04T01:14:24;100240.56;;;-0.66;100.00
65997;BME280;52765;52.258;21.052;2023-02-04T01:16:50;100243.78;;;-0.61;100.00
65997;BME280;52765;52.258;21.052;2023-02-04T01:19:15;100248.06;;;-0.58;100.00
65997;BME280;52765;52.258;21.052;2023-02-04T01:21:41;100258.56;;;-0.57;100.00
65997;BME280;52765;52.258;21.052;2023-02-04T01:24:06;100258.34;;;-0.53;100.00
65997;BME280;52765;52.258;21.052;2023-02-04T01:26:32;100264.09;;;-0.61;100.00
65997;BME280;52765;52.258;21.052;2023-02-04T01:28:57;100274.09;;;-0.66;100.00
65997;BME280;52765;52.258;21.052;2023-02-04T01:31:23;100281.53;;;-0.73;100.00
65997;BME280;52765;52.258;21.052;2023-02-04T01:33:48;100278.50;;;-0.67;100.00
65997;BME280;52765;52.258;21.052;2023-02-04T01:36:13;100299.75;;;-0.68;100.00
65997;BME280;52765;52.258;21.052;2023-02-04T01:38:39;100310.84;;;-0.62;100.00
65997;BME280;52765;52.258;21.052;2023-02-04T01:41:04;100314.00;;;-0.55;100.00
65997;BME280;52765;52.258;21.052;2023-02-04T01:43:31;100323.75;;;-0.56;100.00
65997;BME280;52765;52.258;21.052;2023-02-04T01:45:57;100338.44;;;-0.66;100.00
65997;BME280;52765;52.258;21.052;2023-02-04T01:48:23;100334.78;;;-0.63;100.00
65997;BME280;52765;52.258;21.052;2023-02-04T01:50:50;100352.03;;;-0.56;100.00
65997;BME280;52765;52.258;21.052;2023-02-04T01:53:22;100356.25;;;-0.53;100.00
65997;BME280;52765;52.258;21.052;2023-02-04T01:55:48;100347.91;;;-0.62;100.00
65997;BME280;52765;52.258;21.052;2023-02-04T01:58:13;100374.63;;;-0.50;100.00
65997;BME280;52765;52.258;21.052;2023-02-04T02:00:40;100380.88;;;-0.51;100.00
65997;BME280;52765;52.258;21.052;2023-02-04T02:03:06;100390.25;;;-0.46;100.00
65997;BME280;52765;52.258;21.052;2023-02-04T02:05:39;100389.56;;;-0.49;100.00
65997;BME280;52765;52.258;21.052;2023-02-04T02:08:06;100390.41;;;-0.49;100.00
65997;BME280;52765;52.258;21.052;2023-02-04T02:10:33;100409.91;;;-0.50;100.00
65997;BME280;52765;52.258;21.052;2023-02-04T02:12:59;100408.19;;;-0.51;100.00
65997;BME280;52765;52.258;21.052;2023-02-04T02:15:25;100429.00;;;-0.61;100.00
65997;BME280;52765;52.258;21.052;2023-02-04T02:17:52;100433.53;;;-0.63;100.00
65997;BME280;52765;52.258;21.052;2023-02-04T02:20:21;100450.34;;;-0.64;100.00
65997;BME280;52765;52.258;21.052;2023-02-04T02:25:13;100472.25;;;-0.62;100.00
65997;BME280;52765;52.258;21.052;2023-02-04T02:27:39;100477.66;;;-0.63;100.00
65997;BME280;52765;52.258;21.052;2023-02-04T02:30:06;100496.19;;;-0.63;100.00
65997;BME280;52765;52.258;21.052;2023-02-04T02:32:34;100503.94;;;-0.60;100.00
65997;BME280;52765;52.258;21.052;2023-02-04T02:35:00;100508.91;;;-0.54;100.00
65997;BME280;52765;52.258;21.052;2023-02-04T02:37:25;100510.94;;;-0.59;100.00
65997;BME280;52765;52.258;21.052;2023-02-04T02:39:51;100518.50;;;-0.51;100.00
65997;BME280;52765;52.258;21.052;2023-02-04T02:42:17;100537.41;;;-0.59;100.00
65997;BME280;52765;52.258;21.052;2023-02-04T02:44:44;100543.53;;;-0.59;100.00
65997;BME280;52765;52.258;21.052;2023-02-04T02:47:16;100554.06;;;-0.57;100.00
65997;BME280;52765;52.258;21.052;2023-02-04T02:49:45;100557.72;;;-0.60;100.00
65997;BME280;52765;52.258;21.052;2023-02-04T02:52:12;100555.25;;;-0.63;100.00
65997;BME280;52765;52.258;21.052;2023-02-04T02:54:38;100582.63;;;-0.64;100.00
65997;BME280;52765;52.258;21.052;2023-02-04T02:57:13;100584.34;;;-0.63;100.00
65997;BME280;52765;52.258;21.052;2023-02-04T02:59:39;100608.00;;;-0.60;100.00
65997;BME280;52765;52.258;21.052;2023-02-04T03:02:05;100604.69;;;-0.63;100.00
65997;BME280;52765;52.258;21.052;2023-02-04T03:04:33;100618.53;;;-0.58;100.00
65997;BME280;52765;52.258;21.052;2023-02-04T03:07:01;100621.84;;;-0.54;100.00
65997;BME280;52765;52.258;21.052;2023-02-04T03:09:27;100622.78;;;-0.56;100.00
65997;BME280;52765;52.258;21.052;2023-02-04T03:11:54;100626.13;;;-0.52;100.00
65997;BME280;52765;52.258;21.052;2023-02-04T03:14:19;100638.19;;;-0.46;100.00
65997;BME280;52765;52.258;21.052;2023-02-04T03:16:47;100639.50;;;-0.55;100.00
65997;BME280;52765;52.258;21.052;2023-02-04T03:19:13;100658.75;;;-0.51;100.00
65997;BME280;52765;52.258;21.052;2023-02-04T03:21:38;100665.91;;;-0.53;100.00
65997;BME280;52765;52.258;21.052;2023-02-04T03:24:05;100671.03;;;-0.50;100.00
65997;BME280;52765;52.258;21.052;2023-02-04T03:26:31;100674.47;;;-0.48;100.00
65997;BME280;52765;52.258;21.052;2023-02-04T03:28:57;100691.00;;;-0.43;100.00
65997;BME280;52765;52.258;21.052;2023-02-04T03:31:23;100690.75;;;-0.56;100.00
65997;BME280;52765;52.258;21.052;2023-02-04T03:33:48;100697.03;;;-0.59;100.00
65997;BME280;52765;52.258;21.052;2023-02-04T03:36:14;100724.81;;;-0.67;100.00
65997;BME280;52765;52.258;21.052;2023-02-04T03:38:39;100734.63;;;-0.69;100.00
65997;BME280;52765;52.258;21.052;2023-02-04T03:41:06;100741.88;;;-0.73;100.00
65997;BME280;52765;52.258;21.052;2023-02-04T03:43:31;100746.19;;;-0.72;100.00
65997;BME280;52765;52.258;21.052;2023-02-04T03:45:57;100740.28;;;-0.77;100.00
65997;BME280;52765;52.258;21.052;2023-02-04T03:48:22;100756.47;;;-0.83;100.00
65997;BME280;52765;52.258;21.052;2023-02-04T03:50:48;100761.91;;;-0.86;100.00
65997;BME280;52765;52.258;21.052;2023-02-04T03:53:13;100768.69;;;-0.81;100.00
65997;BME280;52765;52.258;21.052;2023-02-04T03:55:38;100787.97;;;-0.79;100.00
65997;BME280;52765;52.258;21.052;2023-02-04T03:58:04;100778.91;;;-0.92;100.00
65997;BME280;52765;52.258;21.052;2023-02-04T04:00:30;100794.06;;;-0.96;100.00
65997;BME280;52765;52.258;21.052;2023-02-04T04:02:56;100812.94;;;-1.03;100.00
65997;BME280;52765;52.258;21.052;2023-02-04T04:05:22;100815.88;;;-1.09;100.00
65997;BME280;52765;52.258;21.052;2023-02-04T04:07:48;100824.94;;;-1.15;100.00
65997;BME280;52765;52.258;21.052;2023-02-04T04:10:14;100830.38;;;-1.18;100.00
65997;BME280;52765;52.258;21.052;2023-02-04T04:12:39;100829.81;;;-1.25;100.00
65997;BME280;52765;52.258;21.052;2023-02-04T04:15:05;100845.22;;;-1.35;100.00
65997;BME280;52765;52.258;21.052;2023-02-04T04:17:31;100859.09;;;-1.29;100.00
65997;BME280;52765;52.258;21.052;2023-02-04T04:19:56;100870.50;;;-1.29;100.00
65997;BME280;52765;52.258;21.052;2023-02-04T04:22:22;100878.38;;;-1.27;100.00
65997;BME280;52765;52.258;21.052;2023-02-04T04:24:47;100882.94;;;-1.31;100.00
65997;BME280;52765;52.258;21.052;2023-02-04T04:27:13;100881.09;;;-1.29;100.00
65997;BME280;52765;52.258;21.052;2023-02-04T04:29:38;100880.09;;;-1.26;100.00
65997;BME280;52765;52.258;21.052;2023-02-04T04:32:04;100899.13;;;-1.18;100.00
65997;BME280;52765;52.258;21.052;2023-02-04T04:34:29;100918.69;;;-1.22;100.00
65997;BME280;52765;52.258;21.052;2023-02-04T04:36:55;100922.09;;;-1.20;100.00
65997;BME280;52765;52.258;21.052;2023-02-04T04:39:20;100936.22;;;-1.20;100.00
65997;BME280;52765;52.258;21.052;2023-02-04T04:41:46;100941.81;;;-1.27;100.00
65997;BME280;52765;52.258;21.052;2023-02-04T04:44:11;100938.97;;;-1.23;100.00
65997;BME280;52765;52.258;21.052;2023-02-04T04:46:37;100951.31;;;-1.23;100.00
65997;BME280;52765;52.258;21.052;2023-02-04T04:49:05;100955.03;;;-1.27;100.00
65997;BME280;52765;52.258;21.052;2023-02-04T04:51:30;100959.34;;;-1.25;100.00
65997;BME280;52765;52.258;21.052;2023-02-04T04:53:57;100974.06;;;-1.19;100.00
65997;BME280;52765;52.258;21.052;2023-02-04T04:56:22;100975.59;;;-1.14;100.00
65997;BME280;52765;52.258;21.052;2023-02-04T04:58:48;100975.50;;;-1.12;100.00
65997;BME280;52765;52.258;21.052;2023-02-04T05:01:13;100988.53;;;-1.07;100.00
65997;BME280;52765;52.258;21.052;2023-02-04T05:03:39;100993.50;;;-1.00;100.00
65997;BME280;52765;52.258;21.052;2023-02-04T05:06:04;100993.63;;;-1.03;100.00
65997;BME280;52765;52.258;21.052;2023-02-04T05:08:30;101007.91;;;-1.07;100.00
65997;BME280;52765;52.258;21.052;2023-02-04T05:10:55;101011.75;;;-1.14;100.00
65997;BME280;52765;52.258;21.052;2023-02-04T05:13:21;101020.53;;;-1.14;100.00
65997;BME280;52765;52.258;21.052;2023-02-04T05:15:49;101031.84;;;-1.10;100.00
65997;BME280;52765;52.258;21.052;2023-02-04T05:18:14;101033.56;;;-1.09;100.00
65997;BME280;52765;52.258;21.052;2023-02-04T05:20:40;101025.50;;;-1.06;100.00
65997;BME280;52765;52.258;21.052;2023-02-04T05:23:05;101044.75;;;-1.02;100.00
65997;BME280;52765;52.258;21.052;2023-02-04T05:25:31;101050.63;;;-0.96;100.00
65997;BME280;52765;52.258;21.052;2023-02-04T05:27:56;101066.50;;;-0.96;100.00
65997;BME280;52765;52.258;21.052;2023-02-04T05:30:21;101065.53;;;-0.93;100.00
65997;BME280;52765;52.258;21.052;2023-02-04T05:32:47;101085.78;;;-0.94;100.00
65997;BME280;52765;52.258;21.052;2023-02-04T05:35:12;101085.75;;;-0.92;100.00
65997;BME280;52765;52.258;21.052;2023-02-04T05:37:38;101077.31;;;-1.02;100.00
65997;BME280;52765;52.258;21.052;2023-02-04T05:40:03;101095.47;;;-0.93;100.00
65997;BME280;52765;52.258;21.052;2023-02-04T05:42:30;101098.91;;;-0.90;99.99
65997;BME280;52765;52.258;21.052;2023-02-04T05:44:55;101119.28;;;-0.93;100.00
65997;BME280;52765;52.258;21.052;2023-02-04T05:47:21;101117.59;;;-0.95;99.71
65997;BME280;52765;52.258;21.052;2023-02-04T05:49:46;101123.72;;;-0.93;99.79
65997;BME280;52765;52.258;21.052;2023-02-04T05:52:11;101129.78;;;-0.91;99.45
65997;BME280;52765;52.258;21.052;2023-02-04T05:54:37;101131.91;;;-0.99;98.99
65997;BME280;52765;52.258;21.052;2023-02-04T05:57:02;101147.81;;;-1.01;99.45
65997;BME280;52765;52.258;21.052;2023-02-04T05:59:28;101161.06;;;-1.01;98.48
65997;BME280;52765;52.258;21.052;2023-02-04T06:01:53;101171.38;;;-0.95;98.28
65997;BME280;52765;52.258;21.052;2023-02-04T06:04:19;101181.69;;;-0.88;97.40
65997;BME280;52765;52.258;21.052;2023-02-04T06:06:44;101202.84;;;-0.88;96.79
65997;BME280;52765;52.258;21.052;2023-02-04T06:09:10;101197.56;;;-1.10;97.27
65997;BME280;52765;52.258;21.052;2023-02-04T06:11:36;101203.53;;;-1.05;98.12
65997;BME280;52765;52.258;21.052;2023-02-04T06:14:02;101222.72;;;-1.00;97.87
65997;BME280;52765;52.258;21.052;2023-02-04T06:16:28;101220.75;;;-0.95;96.63
65997;BME280;52765;52.258;21.052;2023-02-04T06:18:53;101241.81;;;-0.92;96.91
65997;BME280;52765;52.258;21.052;2023-02-04T06:21:19;101230.97;;;-0.86;96.27
65997;BME280;52765;52.258;21.052;2023-02-04T06:23:44;101246.97;;;-0.89;96.65
65997;BME280;52765;52.258;21.052;2023-02-04T06:26:10;101254.19;;;-0.93;96.38
65997;BME280;52765;52.258;21.052;2023-02-04T06:28:36;101259.81;;;-1.02;96.94
65997;BME280;52765;52.258;21.052;2023-02-04T06:31:02;101268.13;;;-1.11;97.08
65997;BME280;52765;52.258;21.052;2023-02-04T06:33:27;101271.16;;;-1.22;95.89
65997;BME280;52765;52.258;21.052;2023-02-04T06:35:53;101291.00;;;-1.34;96.00
65997;BME280;52765;52.258;21.052;2023-02-04T06:38:18;101294.69;;;-1.38;95.90
65997;BME280;52765;52.258;21.052;2023-02-04T06:40:44;101296.72;;;-1.44;95.91
65997;BME280;52765;52.258;21.052;2023-02-04T06:43:14;101305.00;;;-1.55;95.04
65997;BME280;52765;52.258;21.052;2023-02-04T06:45:39;101305.41;;;-1.66;96.19
65997;BME280;52765;52.258;21.052;2023-02-04T06:48:05;101305.53;;;-1.69;95.63
65997;BME280;52765;52.258;21.052;2023-02-04T06:50:33;101316.47;;;-1.80;96.53
65997;BME280;52765;52.258;21.052;2023-02-04T06:52:58;101320.78;;;-1.77;95.85
65997;BME280;52765;52.258;21.052;2023-02-04T06:55:23;101329.50;;;-1.75;95.77
65997;BME280;52765;52.258;21.052;2023-02-04T06:57:49;101328.66;;;-1.76;94.97
65997;BME280;52765;52.258;21.052;2023-02-04T07:00:14;101341.16;;;-1.81;94.50
65997;BME280;52765;52.258;21.052;2023-02-04T07:02:42;101349.09;;;-1.81;94.92
65997;BME280;52765;52.258;21.052;2023-02-04T07:05:10;101358.50;;;-1.74;94.43
65997;BME280;52765;52.258;21.052;2023-02-04T07:07:35;101352.63;;;-1.82;95.38
65997;BME280;52765;52.258;21.052;2023-02-04T07:10:01;101364.59;;;-1.72;95.37
65997;BME280;52765;52.258;21.052;2023-02-04T07:12:26;101369.78;;;-1.69;94.62
65997;BME280;52765;52.258;21.052;2023-02-04T07:14:52;101388.13;;;-1.64;94.98
65997;BME280;52765;52.258;21.052;2023-02-04T07:17:17;101395.69;;;-1.53;94.33
65997;BME280;52765;52.258;21.052;2023-02-04T07:19:42;101402.28;;;-1.40;94.11
65997;BME280;52765;52.258;21.052;2023-02-04T07:22:08;101406.25;;;-1.28;92.65
65997;BME280;52765;52.258;21.052;2023-02-04T07:24:33;101410.50;;;-1.24;91.69
65997;BME280;52765;52.258;21.052;2023-02-04T07:26:59;101433.28;;;-1.20;92.08
65997;BME280;52765;52.258;21.052;2023-02-04T07:29:24;101421.09;;;-1.24;90.64
65997;BME280;52765;52.258;21.052;2023-02-04T07:31:50;101422.34;;;-1.34;90.88
65997;BME280;52765;52.258;21.052;2023-02-04T07:34:20;101434.09;;;-1.43;90.64
65997;BME280;52765;52.258;21.052;2023-02-04T07:36:45;101442.19;;;-1.47;91.35
65997;BME280;52765;52.258;21.052;2023-02-04T07:39:11;101447.25;;;-1.41;92.14
65997;BME280;52765;52.258;21.052;2023-02-04T07:41:36;101459.13;;;-1.28;90.97
65997;BME280;52765;52.258;21.052;2023-02-04T07:44:02;101453.19;;;-1.35;89.30
65997;BME280;52765;52.258;21.052;2023-02-04T07:46:28;101456.53;;;-1.55;89.70
65997;BME280;52765;52.258;21.052;2023-02-04T07:48:54;101466.06;;;-1.51;89.18
65997;BME280;52765;52.258;21.052;2023-02-04T07:51:20;101475.44;;;-1.42;88.67
65997;BME280;52765;52.258;21.052;2023-02-04T07:53:45;101470.16;;;-1.42;88.68
65997;BME280;52765;52.258;21.052;2023-02-04T07:56:11;101489.31;;;-1.35;87.79
65997;BME280;52765;52.258;21.052;2023-02-04T07:58:36;101481.28;;;-1.57;88.07
65997;BME280;52765;52.258;21.052;2023-02-04T08:01:02;101485.22;;;-1.44;88.58
65997;BME280;52765;52.258;21.052;2023-02-04T08:03:27;101496.19;;;-1.29;87.51
65997;BME280;52765;52.258;21.052;2023-02-04T08:05:53;101501.69;;;-1.36;86.48
65997;BME280;52765;52.258;21.052;2023-02-04T08:08:19;101498.19;;;-1.36;86.33
65997;BME280;52765;52.258;21.052;2023-02-04T08:10:44;101498.78;;;-1.28;85.15
65997;BME280;52765;52.258;21.052;2023-02-04T08:13:10;101508.28;;;-1.22;84.54
65997;BME280;52765;52.258;21.052;2023-02-04T08:15:35;101515.22;;;-1.18;84.50
65997;BME280;52765;52.258;21.052;2023-02-04T08:18:01;101509.75;;;-1.14;83.80
65997;BME280;52765;52.258;21.052;2023-02-04T08:20:26;101514.38;;;-1.20;82.10
65997;BME280;52765;52.258;21.052;2023-02-04T08:22:52;101523.91;;;-1.15;81.77
65997;BME280;52765;52.258;21.052;2023-02-04T08:25:17;101531.31;;;-1.26;82.02
65997;BME280;52765;52.258;21.052;2023-02-04T08:27:43;101535.28;;;-1.39;82.28
65997;BME280;52765;52.258;21.052;2023-02-04T08:30:09;101562.78;;;-1.45;83.38
65997;BME280;52765;52.258;21.052;2023-02-04T08:32:34;101547.84;;;-1.73;84.81
65997;BME280;52765;52.258;21.052;2023-02-04T08:35:00;101556.38;;;-1.64;84.27
65997;BME280;52765;52.258;21.052;2023-02-04T08:37:26;101554.38;;;-1.56;84.24
65997;BME280;52765;52.258;21.052;2023-02-04T08:39:53;101565.59;;;-1.50;85.04
65997;BME280;52765;52.258;21.052;2023-02-04T08:42:20;101547.81;;;-1.44;84.81
65997;BME280;52765;52.258;21.052;2023-02-04T08:44:45;101561.53;;;-1.33;85.67
65997;BME280;52765;52.258;21.052;2023-02-04T08:47:11;101568.25;;;-1.23;81.09
65997;BME280;52765;52.258;21.052;2023-02-04T08:49:37;101544.41;;;-1.21;81.45
65997;BME280;52765;52.258;21.052;2023-02-04T08:52:03;101557.78;;;-1.01;80.29
65997;BME280;52765;52.258;21.052;2023-02-04T08:54:30;101557.44;;;-1.17;77.44
65997;BME280;52765;52.258;21.052;2023-02-04T08:56:56;101551.72;;;-1.29;74.49
65997;BME280;52765;52.258;21.052;2023-02-04T08:59:22;101552.00;;;-1.39;74.31
65997;BME280;52765;52.258;21.052;2023-02-04T09:01:49;101549.03;;;-1.28;73.54
65997;BME280;52765;52.258;21.052;2023-02-04T09:04:20;101567.25;;;-1.20;73.40
65997;BME280;52765;52.258;21.052;2023-02-04T09:06:46;101567.31;;;-1.22;72.66
65997;BME280;52765;52.258;21.052;2023-02-04T09:09:12;101562.97;;;-1.23;72.54
65997;BME280;52765;52.258;21.052;2023-02-04T09:11:38;101567.81;;;-1.10;72.13
65997;BME280;52765;52.258;21.052;2023-02-04T09:14:03;101593.69;;;-0.94;72.29
65997;BME280;52765;52.258;21.052;2023-02-04T09:16:29;101576.97;;;-0.94;70.53
65997;BME280;52765;52.258;21.052;2023-02-04T09:18:54;101585.66;;;-0.90;69.35
65997;BME280;52765;52.258;21.052;2023-02-04T09:21:20;101576.66;;;-0.85;68.42
65997;BME280;52765;52.258;21.052;2023-02-04T09:23:46;101583.41;;;-0.76;68.55
65997;BME280;52765;52.258;21.052;2023-02-04T09:26:15;101582.03;;;-0.63;67.99
65997;BME280;52765;52.258;21.052;2023-02-04T09:28:40;101574.22;;;-0.66;66.62
65997;BME280;52765;52.258;21.052;2023-02-04T09:31:06;101579.09;;;-0.55;66.75
65997;BME280;52765;52.258;21.052;2023-02-04T09:33:32;101578.63;;;-0.41;66.38
65997;BME280;52765;52.258;21.052;2023-02-04T09:35:58;101588.84;;;-0.32;64.03
65997;BME280;52765;52.258;21.052;2023-02-04T09:38:26;101590.53;;;-0.29;63.31
65997;BME280;52765;52.258;21.052;2023-02-04T09:40:57;101606.69;;;-0.37;63.16
65997;BME280;52765;52.258;21.052;2023-02-04T09:43:27;101598.88;;;-0.40;62.66
65997;BME280;52765;52.258;21.052;2023-02-04T09:46:03;101609.97;;;-0.30;63.14
65997;BME280;52765;52.258;21.052;2023-02-04T09:48:32;101620.47;;;-0.27;62.50
65997;BME280;52765;52.258;21.052;2023-02-04T09:51:04;101635.13;;;-0.42;62.24
65997;BME280;52765;52.258;21.052;2023-02-04T09:53:30;101617.69;;;-0.48;63.12
65997;BME280;52765;52.258;21.052;2023-02-04T09:55:56;101634.47;;;-0.49;62.25
65997;BME280;52765;52.258;21.052;2023-02-04T09:58:23;101629.72;;;-0.39;63.26
65997;BME280;52765;52.258;21.052;2023-02-04T10:03:34;101636.06;;;-0.43;61.79
65997;BME280;52765;52.258;21.052;2023-02-04T10:06:00;101651.34;;;-0.26;62.97
65997;BME280;52765;52.258;21.052;2023-02-04T10:08:28;101651.34;;;-0.51;62.33
65997;BME280;52765;52.258;21.052;2023-02-04T10:10:57;101638.81;;;-0.46;62.63
65997;BME280;52765;52.258;21.052;2023-02-04T10:13:32;101648.91;;;-0.32;63.64
65997;BME280;52765;52.258;21.052;2023-02-04T10:15:59;101657.13;;;-0.40;64.32
65997;BME280;52765;52.258;21.052;2023-02-04T10:18:28;101651.66;;;-0.61;64.84
65997;BME280;52765;52.258;21.052;2023-02-04T10:23:36;101661.44;;;-0.38;66.05
65997;BME280;52765;52.258;21.052;2023-02-04T10:26:03;101661.00;;;-0.25;65.35
65997;BME280;52765;52.258;21.052;2023-02-04T10:28:32;101656.28;;;-0.17;64.86
65997;BME280;52765;52.258;21.052;2023-02-04T10:30:58;101666.09;;;-0.19;64.75
65997;BME280;52765;52.258;21.052;2023-02-04T10:33:23;101678.47;;;-0.45;64.20
65997;BME280;52765;52.258;21.052;2023-02-04T10:35:52;101673.22;;;-0.46;65.62
65997;BME280;52765;52.258;21.052;2023-02-04T10:38:19;101683.97;;;-0.26;65.98
65997;BME280;52765;52.258;21.052;2023-02-04T10:40:45;101677.63;;;0.04;64.50
65997;BME280;52765;52.258;21.052;2023-02-04T10:43:21;101672.72;;;-0.07;63.86
65997;BME280;52765;52.258;21.052;2023-02-04T10:45:57;101700.84;;;-0.28;65.23
65997;BME280;52765;52.258;21.052;2023-02-04T10:48:24;101696.81;;;-0.40;67.61
65997;BME280;52765;52.258;21.052;2023-02-04T10:50:50;101687.91;;;-0.12;66.79
65997;BME280;52765;52.258;21.052;2023-02-04T10:53:21;101679.06;;;-0.11;66.07
65997;BME280;52765;52.258;21.052;2023-02-04T10:56:17;101687.75;;;-0.08;65.98
65997;BME280;52765;52.258;21.052;2023-02-04T10:58:44;101694.31;;;-0.18;64.96
65997;BME280;52765;52.258;21.052;2023-02-04T11:01:10;101690.47;;;-0.34;66.12
65997;BME280;52765;52.258;21.052;2023-02-04T11:03:38;101695.78;;;-0.34;66.45
65997;BME280;52765;52.258;21.052;2023-02-04T11:06:10;101685.97;;;-0.07;65.78
65997;BME280;52765;52.258;21.052;2023-02-04T11:08:37;101685.06;;;0.17;65.48
65997;BME280;52765;52.258;21.052;2023-02-04T11:11:05;101686.00;;;0.40;64.26
65997;BME280;52765;52.258;21.052;2023-02-04T11:21:42;101679.59;;;0.22;62.69
65997;BME280;52765;52.258;21.052;2023-02-04T11:26:41;101691.28;;;0.16;63.52
65997;BME280;52765;52.258;21.052;2023-02-04T11:37:11;101704.97;;;-0.20;65.40
65997;BME280;52765;52.258;21.052;2023-02-04T11:39:38;101694.34;;;0.06;64.82
65997;BME280;52765;52.258;21.052;2023-02-04T11:42:37;101708.13;;;0.39;63.82
65997;BME280;52765;52.258;21.052;2023-02-04T11:45:00;101699.25;;;-0.09;64.11
65997;BME280;52765;52.258;21.052;2023-02-04T11:47:27;101696.38;;;-0.26;64.96
65997;BME280;52765;52.258;21.052;2023-02-04T11:50:01;101700.06;;;-0.07;65.46
65997;BME280;52765;52.258;21.052;2023-02-04T11:52:27;101702.47;;;0.25;64.89
65997;BME280;52765;52.258;21.052;2023-02-04T11:54:57;101700.97;;;0.17;64.05
65997;BME280;52765;52.258;21.052;2023-02-04T11:57:23;101695.72;;;0.40;62.81
65997;BME280;52765;52.258;21.052;2023-02-04T11:59:48;101702.56;;;0.22;63.59
65997;BME280;52765;52.258;21.052;2023-02-04T12:02:20;101700.09;;;0.17;63.24
65997;BME280;52765;52.258;21.052;2023-02-04T12:05:09;101708.88;;;0.19;63.65
65997;BME280;52765;52.258;21.052;2023-02-04T12:07:35;101704.53;;;0.16;64.29
65997;BME280;52765;52.258;21.052;2023-02-04T12:10:32;101701.81;;;0.18;65.60
65997;BME280;52765;52.258;21.052;2023-02-04T12:12:59;101712.25;;;-0.01;67.83
65997;BME280;52765;52.258;21.052;2023-02-04T12:15:31;101709.19;;;0.10;69.46
65997;BME280;52765;52.258;21.052;2023-02-04T12:18:06;101706.03;;;0.24;68.49
65997;BME280;52765;52.258;21.052;2023-02-04T12:20:33;101723.97;;;0.17;68.00
65997;BME280;52765;52.258;21.052;2023-02-04T12:22:58;101717.09;;;0.11;69.80
65997;BME280;52765;52.258;21.052;2023-02-04T12:25:24;101720.09;;;0.26;69.68
65997;BME280;52765;52.258;21.052;2023-02-04T12:27:51;101732.19;;;0.33;67.31
65997;BME280;52765;52.258;21.052;2023-02-04T12:30:18;101730.00;;;0.21;67.09
65997;BME280;52765;52.258;21.052;2023-02-04T12:32:45;101724.63;;;-0.02;67.04
65997;BME280;52765;52.258;21.052;2023-02-04T12:35:10;101732.28;;;0.06;67.40
65997;BME280;52765;52.258;21.052;2023-02-04T12:37:36;101743.97;;;0.26;66.93
65997;BME280;52765;52.258;21.052;2023-02-04T12:40:02;101743.56;;;0.60;65.94
65997;BME280;52765;52.258;21.052;2023-02-04T12:42:27;101727.22;;;0.71;65.13
65997;BME280;52765;52.258;21.052;2023-02-04T12:44:53;101751.38;;;1.09;64.08
65997;BME280;52765;52.258;21.052;2023-02-04T12:47:18;101745.00;;;0.91;63.14
65997;BME280;52765;52.258;21.052;2023-02-04T12:49:43;101726.59;;;1.10;62.87
65997;BME280;52765;52.258;21.052;2023-02-04T12:52:10;101751.66;;;0.79;61.50
65997;BME280;52765;52.258;21.052;2023-02-04T12:54:36;101739.97;;;0.61;62.32
65997;BME280;52765;52.258;21.052;2023-02-04T12:57:02;101746.44;;;0.30;61.46
65997;BME280;52765;52.258;21.052;2023-02-04T12:59:27;101748.09;;;0.09;60.63